sensor_id;sensor_type;location;lat;lon;timestamp;pressure;altitude;pressure_sealevel;temperature;humidity
39613;BME280;25303;48.896;13.342;2023-11-21T00:00:52;92274.44;;;6.50;73.70
39613;BME280;25303;48.896;13.342;2023-11-21T00:10:55;92281.78;;;6.45;73.33
39613;BME280;25303;48.896;13.342;2023-11-21T00:20:59;92274.59;;;6.49;73.68
39613;BME280;25303;48.896;13.342;2023-11-21T00:31:02;92271.16;;;6.58;74.23
39613;BME280;25303;48.896;13.342;2023-11-21T00:41:07;92273.59;;;6.60;73.96
39613;BME280;25303;48.896;13.342;2023-11-21T00:51:10;92271.44;;;6.55;73.58
39613;BME280;25303;48.896;13.342;2023-11-21T01:01:14;92267.28;;;6.54;73.60
39613;BME280;25303;48.896;13.342;2023-11-21T01:11:17;92255.75;;;6.50;73.79
39613;BME280;25303;48.896;13.342;2023-11-21T01:21:22;92245.66;;;6.48;73.83
39613;BME280;25303;48.896;13.342;2023-11-21T01:31:25;92244.38;;;6.44;73.74
39613;BME280;25303;48.896;13.342;2023-11-21T01:41:32;92243.06;;;6.40;73.90
39613;BME280;25303;48.896;13.342;2023-11-21T01:51:36;92244.94;;;6.38;73.82
39613;BME280;25303;48.896;13.342;2023-11-21T02:01:41;92245.72;;;6.38;73.84
39613;BME280;25303;48.896;13.342;2023-11-21T02:11:45;92255.63;;;6.33;73.89
39613;BME280;25303;48.896;13.342;2023-11-21T02:21:51;92247.94;;;6.33;73.85
39613;BME280;25303;48.896;13.342;2023-11-21T02:31:55;92238.66;;;6.32;73.80
39613;BME280;25303;48.896;13.342;2023-11-21T02:41:59;92238.94;;;6.29;73.71
39613;BME280;25303;48.896;13.342;2023-11-21T02:52:04;92238.28;;;6.27;73.95
39613;BME280;25303;48.896;13.342;2023-11-21T03:02:07;92236.19;;;6.22;73.75
39613;BME280;25303;48.896;13.342;2023-11-21T03:12:12;92224.34;;;6.21;73.99
39613;BME280;25303;48.896;13.342;2023-11-21T03:22:16;92225.44;;;6.19;74.27
39613;BME280;25303;48.896;13.342;2023-11-21T03:32:20;92220.75;;;6.14;74.31
39613;BME280;25303;48.896;13.342;2023-11-21T03:42:23;92217.03;;;6.08;74.50
39613;BME280;25303;48.896;13.342;2023-11-21T03:52:28;92219.88;;;6.05;74.38
39613;BME280;25303;48.896;13.342;2023-11-21T04:02:33;92223.75;;;6.10;74.25
39613;BME280;25303;48.896;13.342;2023-11-21T04:12:38;92222.00;;;6.10;73.96
39613;BME280;25303;48.896;13.342;2023-11-21T04:22:42;92223.75;;;6.10;74.02
39613;BME280;25303;48.896;13.342;2023-11-21T04:32:47;92217.84;;;6.09;74.02
39613;BME280;25303;48.896;13.342;2023-11-21T04:42:51;92213.59;;;6.00;73.88
39613;BME280;25303;48.896;13.342;2023-11-21T04:52:55;92220.19;;;6.02;74.09
39613;BME280;25303;48.896;13.342;2023-11-21T05:02:58;92210.47;;;6.06;74.24
39613;BME280;25303;48.896;13.342;2023-11-21T05:13:04;92214.34;;;6.10;74.02
39613;BME280;25303;48.896;13.342;2023-11-21T05:23:11;92223.03;;;6.17;74.67
39613;BME280;25303;48.896;13.342;2023-11-21T05:33:15;92223.69;;;6.19;74.55
39613;BME280;25303;48.896;13.342;2023-11-21T05:43:18;92224.06;;;6.25;74.87
39613;BME280;25303;48.896;13.342;2023-11-21T05:53:23;92221.94;;;6.20;74.55
39613;BME280;25303;48.896;13.342;2023-11-21T06:03:25;92238.63;;;6.14;75.00
39613;BME280;25303;48.896;13.342;2023-11-21T06:13:30;92241.25;;;6.04;74.43
39613;BME280;25303;48.896;13.342;2023-11-21T06:23:33;92244.25;;;6.00;74.06
39613;BME280;25303;48.896;13.342;2023-11-21T06:33:37;92254.72;;;5.97;74.07
39613;BME280;25303;48.896;13.342;2023-11-21T06:43:40;92270.22;;;5.95;74.10
39613;BME280;25303;48.896;13.342;2023-11-21T06:53:47;92265.25;;;5.93;74.11
39613;BME280;25303;48.896;13.342;2023-11-21T07:03:50;92276.53;;;6.01;74.30
39613;BME280;25303;48.896;13.342;2023-11-21T07:13:55;92289.81;;;6.04;74.23
39613;BME280;25303;48.896;13.342;2023-11-21T07:23:58;92298.56;;;6.02;74.08
39613;BME280;25303;48.896;13.342;2023-11-21T07:34:02;92298.28;;;6.05;74.05
39613;BME280;25303;48.896;13.342;2023-11-21T07:44:05;92311.59;;;6.08;74.29
39613;BME280;25303;48.896;13.342;2023-11-21T07:54:10;92313.63;;;6.05;74.42
39613;BME280;25303;48.896;13.342;2023-11-21T08:04:13;92320.47;;;6.04;74.46
39613;BME280;25303;48.896;13.342;2023-11-21T08:14:17;92313.13;;;6.01;74.54
39613;BME280;25303;48.896;13.342;2023-11-21T08:24:21;92323.84;;;6.05;74.57
39613;BME280;25303;48.896;13.342;2023-11-21T08:34:25;92323.28;;;6.11;74.43
39613;BME280;25303;48.896;13.342;2023-11-21T08:44:28;92329.53;;;6.27;74.23
39613;BME280;25303;48.896;13.342;2023-11-21T08:54:33;92337.13;;;6.36;74.09
39613;BME280;25303;48.896;13.342;2023-11-21T09:04:37;92341.22;;;6.47;74.23
39613;BME280;25303;48.896;13.342;2023-11-21T09:14:44;92355.84;;;6.55;74.02
39613;BME280;25303;48.896;13.342;2023-11-21T09:24:47;92359.66;;;6.69;73.90
39613;BME280;25303;48.896;13.342;2023-11-21T09:34:51;92370.78;;;6.78;73.75
39613;BME280;25303;48.896;13.342;2023-11-21T09:45:01;92362.75;;;6.91;73.56
39613;BME280;25303;48.896;13.342;2023-11-21T09:55:08;92368.75;;;6.99;72.99
39613;BME280;25303;48.896;13.342;2023-11-21T10:05:14;92359.72;;;7.13;73.16
39613;BME280;25303;48.896;13.342;2023-11-21T10:15:22;92350.97;;;7.16;73.14
39613;BME280;25303;48.896;13.342;2023-11-21T10:25:26;92365.28;;;7.27;73.23
39613;BME280;25303;48.896;13.342;2023-11-21T10:35:42;92366.94;;;7.36;73.22
39613;BME280;25303;48.896;13.342;2023-11-21T10:45:48;92368.28;;;7.49;73.03
39613;BME280;25303;48.896;13.342;2023-11-21T10:56:01;92374.91;;;7.51;72.87
39613;BME280;25303;48.896;13.342;2023-11-21T11:06:06;92367.03;;;7.53;72.69
39613;BME280;25303;48.896;13.342;2023-11-21T11:16:15;92362.59;;;7.55;72.40
39613;BME280;25303;48.896;13.342;2023-11-21T11:26:26;92356.22;;;7.59;72.52
39613;BME280;25303;48.896;13.342;2023-11-21T11:36:37;92352.28;;;7.73;72.53
39613;BME280;25303;48.896;13.342;2023-11-21T11:46:44;92341.63;;;7.86;72.36
39613;BME280;25303;48.896;13.342;2023-11-21T11:56:49;92338.44;;;7.92;72.11
39613;BME280;25303;48.896;13.342;2023-11-21T12:06:55;92341.19;;;7.99;72.15
39613;BME280;25303;48.896;13.342;2023-11-21T12:17:02;92348.44;;;8.03;72.01
39613;BME280;25303;48.896;13.342;2023-11-21T12:27:06;92342.81;;;8.00;71.75
39613;BME280;25303;48.896;13.342;2023-11-21T12:37:11;92353.84;;;7.92;71.75
39613;BME280;25303;48.896;13.342;2023-11-21T12:47:17;92357.28;;;7.83;71.19
39613;BME280;25303;48.896;13.342;2023-11-21T12:57:25;92360.13;;;7.71;71.52
39613;BME280;25303;48.896;13.342;2023-11-21T13:07:29;92363.81;;;7.69;71.34
39613;BME280;25303;48.896;13.342;2023-11-21T13:17:33;92368.56;;;7.64;71.38
39613;BME280;25303;48.896;13.342;2023-11-21T13:27:36;92377.03;;;7.64;71.69
39613;BME280;25303;48.896;13.342;2023-11-21T13:37:41;92378.09;;;7.53;71.08
39613;BME280;25303;48.896;13.342;2023-11-21T13:47:47;92392.91;;;7.41;71.30
39613;BME280;25303;48.896;13.342;2023-11-21T13:57:54;92397.94;;;7.33;71.14
39613;BME280;25303;48.896;13.342;2023-11-21T14:07:57;92400.81;;;7.30;71.51
39613;BME280;25303;48.896;13.342;2023-11-21T14:18:06;92416.31;;;7.28;71.46
39613;BME280;25303;48.896;13.342;2023-11-21T14:28:12;92425.16;;;7.34;71.59
39613;BME280;25303;48.896;13.342;2023-11-21T14:38:26;92420.34;;;7.31;71.57
39613;BME280;25303;48.896;13.342;2023-11-21T14:48:29;92428.84;;;7.32;71.47
39613;BME280;25303;48.896;13.342;2023-11-21T14:58:45;92427.81;;;7.24;71.37
39613;BME280;25303;48.896;13.342;2023-11-21T15:08:49;92424.25;;;7.17;71.38
39613;BME280;25303;48.896;13.342;2023-11-21T15:18:58;92439.06;;;6.77;70.67
39613;BME280;25303;48.896;13.342;2023-11-21T15:29:01;92457.00;;;6.39;70.99
39613;BME280;25303;48.896;13.342;2023-11-21T15:39:06;92454.31;;;6.41;72.33
39613;BME280;25303;48.896;13.342;2023-11-21T15:49:11;92465.81;;;6.55;72.86
39613;BME280;25303;48.896;13.342;2023-11-21T15:59:16;92470.13;;;6.54;72.46
39613;BME280;25303;48.896;13.342;2023-11-21T16:09:19;92476.19;;;6.53;72.57
39613;BME280;25303;48.896;13.342;2023-11-21T16:19:26;92475.41;;;6.53;72.75
39613;BME280;25303;48.896;13.342;2023-11-21T16:29:30;92484.09;;;6.32;71.67
39613;BME280;25303;48.896;13.342;2023-11-21T16:39:36;92491.69;;;6.04;71.96
39613;BME280;25303;48.896;13.342;2023-11-21T16:49:40;92503.91;;;5.91;71.74
39613;BME280;25303;48.896;13.342;2023-11-21T16:59:45;92521.81;;;5.81;72.32
39613;BME280;25303;48.896;13.342;2023-11-21T17:09:52;92508.66;;;5.86;72.62
39613;BME280;25303;48.896;13.342;2023-11-21T17:19:56;92520.59;;;5.95;72.54
39613;BME280;25303;48.896;13.342;2023-11-21T17:30:02;92537.81;;;6.03;72.68
39613;BME280;25303;48.896;13.342;2023-11-21T17:40:07;92541.47;;;6.10;73.22
39613;BME280;25303;48.896;13.342;2023-11-21T17:50:10;92545.22;;;6.06;72.79
39613;BME280;25303;48.896;13.342;2023-11-21T18:00:15;92558.25;;;6.13;72.87
39613;BME280;25303;48.896;13.342;2023-11-21T18:10:19;92558.00;;;6.16;73.32
39613;BME280;25303;48.896;13.342;2023-11-21T18:20:24;92560.53;;;6.16;73.22
39613;BME280;25303;48.896;13.342;2023-11-21T18:30:27;92564.03;;;6.15;72.86
39613;BME280;25303;48.896;13.342;2023-11-21T18:40:31;92573.31;;;6.16;72.78
39613;BME280;25303;48.896;13.342;2023-11-21T18:50:34;92571.72;;;6.05;72.67
39613;BME280;25303;48.896;13.342;2023-11-21T19:00:38;92583.56;;;6.06;72.80
39613;BME280;25303;48.896;13.342;2023-11-21T19:10:41;92586.91;;;6.06;72.90
39613;BME280;25303;48.896;13.342;2023-11-21T19:20:46;92606.97;;;6.11;72.77
39613;BME280;25303;48.896;13.342;2023-11-21T19:30:49;92612.59;;;6.15;72.85
39613;BME280;25303;48.896;13.342;2023-11-21T19:40:54;92622.56;;;6.18;72.78
39613;BME280;25303;48.896;13.342;2023-11-21T19:50:56;92639.78;;;6.16;72.89
39613;BME280;25303;48.896;13.342;2023-11-21T20:01:01;92642.34;;;6.16;72.70
39613;BME280;25303;48.896;13.342;2023-11-21T20:11:04;92655.66;;;6.19;72.77
39613;BME280;25303;48.896;13.342;2023-11-21T20:21:09;92665.72;;;6.21;72.75
39613;BME280;25303;48.896;13.342;2023-11-21T20:31:13;92668.00;;;6.04;72.66
39613;BME280;25303;48.896;13.342;2023-11-21T20:41:17;92679.72;;;6.07;73.07
39613;BME280;25303;48.896;13.342;2023-11-21T20:51:20;92689.00;;;6.08;72.92
39613;BME280;25303;48.896;13.342;2023-11-21T21:01:25;92693.19;;;6.09;72.93
39613;BME280;25303;48.896;13.342;2023-11-21T21:11:28;92696.13;;;6.04;73.00
39613;BME280;25303;48.896;13.342;2023-11-21T21:21:34;92702.72;;;6.07;73.11
39613;BME280;25303;48.896;13.342;2023-11-21T21:31:37;92713.75;;;6.07;72.99
39613;BME280;25303;48.896;13.342;2023-11-21T21:41:42;92721.41;;;6.07;73.04
39613;BME280;25303;48.896;13.342;2023-11-21T21:51:45;92726.41;;;6.09;72.89
39613;BME280;25303;48.896;13.342;2023-11-21T22:01:49;92739.69;;;6.03;73.03
39613;BME280;25303;48.896;13.342;2023-11-21T22:11:55;92745.63;;;6.03;73.17
39613;BME280;25303;48.896;13.342;2023-11-21T22:21:59;92748.31;;;6.02;73.12
39613;BME280;25303;48.896;13.342;2023-11-21T22:32:02;92738.75;;;6.04;73.13
39613;BME280;25303;48.896;13.342;2023-11-21T22:42:08;92748.03;;;6.05;73.09
39613;BME280;25303;48.896;13.342;2023-11-21T22:52:11;92750.59;;;6.05;72.97
39613;BME280;25303;48.896;13.342;2023-11-21T23:02:15;92742.13;;;5.63;71.34
39613;BME280;25303;48.896;13.342;2023-11-21T23:12:18;92749.59;;;5.45;71.82
39613;BME280;25303;48.896;13.342;2023-11-21T23:22:23;92754.94;;;5.42;71.83
39613;BME280;25303;48.896;13.342;2023-11-21T23:32:27;92764.03;;;5.04;70.74
39613;BME280;25303;48.896;13.342;2023-11-21T23:42:32;92756.34;;;4.94;70.79
39613;BME280;25303;48.896;13.342;2023-11-21T23:52:35;92756.25;;;4.63;69.79
